createdAt,value
2018-04-12T00:01:41.027Z,9.21
2018-04-12T00:02:40.475Z,9.26
2018-04-12T00:04:36.447Z,9.12
2018-04-12T00:05:36.406Z,9.14
2018-04-12T00:07:34.340Z,9.21
2018-04-12T00:08:34.883Z,9.17
2018-04-12T00:10:30.780Z,9.23
2018-04-12T00:11:30.277Z,9.14
2018-04-12T00:13:26.710Z,9.23
2018-04-12T00:14:26.202Z,9.17
2018-04-12T00:16:22.689Z,9.16
2018-04-12T00:17:22.116Z,9.23
2018-04-12T00:19:19.065Z,9.26
2018-04-12T00:20:18.031Z,9.17
2018-04-12T00:22:14.976Z,9.19
2018-04-12T00:23:13.994Z,9.03
2018-04-12T00:25:09.942Z,8.98
2018-04-12T00:26:09.935Z,9.04
2018-04-12T00:28:05.892Z,8.98
2018-04-12T00:29:05.878Z,9.08
2018-04-12T00:31:01.845Z,9.19
2018-04-12T00:32:01.817Z,9.09
2018-04-12T00:33:58.759Z,9.11
2018-04-12T00:34:57.759Z,9.05
2018-04-12T00:36:53.713Z,8.97
2018-04-12T00:37:53.715Z,8.83
2018-04-12T00:39:49.679Z,8.85
2018-04-12T00:40:51.164Z,8.71
2018-04-12T00:42:47.588Z,8.79
2018-04-12T00:43:47.601Z,8.80
2018-04-12T00:45:43.540Z,8.61
2018-04-12T00:46:44.040Z,8.65
2018-04-12T00:48:39.428Z,8.65
2018-04-12T00:49:39.412Z,8.64
2018-04-12T00:51:35.389Z,8.72
2018-04-12T00:52:35.363Z,8.77
2018-04-12T00:54:31.803Z,8.82
2018-04-12T00:55:31.293Z,8.72
2018-04-12T00:57:27.753Z,8.79
2018-04-12T00:58:27.228Z,8.79
2018-04-12T01:00:23.695Z,8.69
2018-04-12T01:01:23.162Z,8.74
2018-04-12T01:03:19.125Z,8.60
2018-04-12T01:04:19.625Z,8.69
2018-04-12T01:06:15.020Z,8.61
2018-04-12T01:07:15.036Z,8.61
2018-04-12T01:09:10.991Z,8.62
2018-04-12T01:10:11.026Z,8.53
2018-04-12T01:12:06.890Z,8.60
2018-04-12T01:13:06.893Z,8.54
2018-04-12T01:15:03.830Z,8.60
2018-04-12T01:16:02.813Z,8.62
2018-04-12T01:17:59.274Z,8.61
2018-04-12T01:18:58.775Z,8.53
2018-04-12T01:20:55.710Z,8.58
2018-04-12T01:21:54.714Z,8.60
2018-04-12T01:23:51.180Z,8.60
2018-04-12T01:24:50.648Z,8.50
2018-04-12T01:26:49.088Z,8.50
2018-04-12T01:27:47.576Z,8.44
2018-04-12T01:29:43.523Z,8.47
2018-04-12T01:30:43.512Z,8.62
2018-04-12T01:32:39.944Z,8.57
2018-04-12T01:33:39.459Z,8.57
2018-04-12T01:35:35.450Z,8.64
2018-04-12T01:36:35.915Z,8.57
2018-04-12T01:38:42.903Z,8.53
2018-04-12T01:39:42.392Z,8.58
2018-04-12T01:41:38.852Z,8.60
2018-04-12T01:42:38.335Z,8.53
2018-04-12T01:44:34.259Z,8.49
2018-04-12T01:45:34.770Z,8.46
2018-04-12T01:47:30.713Z,8.60
2018-04-12T01:48:30.191Z,8.47
2018-04-12T01:50:26.647Z,8.46
2018-04-12T01:51:26.122Z,8.49
2018-04-12T01:53:22.105Z,8.46
2018-04-12T01:54:22.052Z,8.49
2018-04-12T01:56:17.978Z,8.34
2018-04-12T01:57:17.970Z,8.39
2018-04-12T01:59:13.940Z,8.29
2018-04-12T02:00:13.879Z,8.36
2018-04-12T02:02:09.831Z,8.39
2018-04-12T02:03:10.748Z,8.32
2018-04-12T02:05:07.250Z,8.34
2018-04-12T02:06:05.728Z,8.34
2018-04-12T02:08:01.706Z,8.25
2018-04-12T02:09:01.706Z,8.42
2018-04-12T02:10:58.146Z,8.42
2018-04-12T02:11:57.613Z,8.40
2018-04-12T02:13:54.577Z,8.43
2018-04-12T02:14:53.559Z,8.50
2018-04-12T02:16:49.516Z,8.46
2018-04-12T02:17:49.481Z,8.40
2018-04-12T02:19:45.936Z,8.32
2018-04-12T02:20:45.422Z,8.43
2018-04-12T02:22:41.345Z,8.34
2018-04-12T02:23:41.871Z,8.36
2018-04-12T02:25:37.787Z,8.42
2018-04-12T02:26:37.279Z,8.34
2018-04-12T02:28:33.213Z,8.46
2018-04-12T02:29:33.199Z,8.36
2018-04-12T02:31:30.135Z,8.34
2018-04-12T02:32:29.140Z,8.40
2018-04-12T02:34:27.228Z,8.35
2018-04-12T02:35:28.121Z,8.35
2018-04-12T02:37:24.158Z,8.36
2018-04-12T02:38:24.670Z,8.29
2018-04-12T02:40:19.052Z,8.39
2018-04-12T02:41:19.048Z,8.29
2018-04-12T02:43:14.997Z,8.26
2018-04-12T02:44:15.002Z,8.28
2018-04-12T02:46:11.436Z,8.21
2018-04-12T02:47:10.918Z,8.31
2018-04-12T02:49:07.367Z,8.25
2018-04-12T02:50:07.367Z,8.32
2018-04-12T02:52:03.274Z,8.31
2018-04-12T02:53:02.751Z,8.26
2018-04-12T02:54:58.689Z,8.28
2018-04-12T02:55:58.679Z,8.29
2018-04-12T02:57:55.147Z,8.24
2018-04-12T02:58:54.639Z,8.17
2018-04-12T03:00:51.591Z,8.21
2018-04-12T03:01:51.089Z,8.14
2018-04-12T03:03:47.020Z,8.11
2018-04-12T03:04:46.504Z,8.07
2018-04-12T03:06:43.484Z,8.04
2018-04-12T03:07:42.998Z,8.09
2018-04-12T03:09:39.386Z,8.04
2018-04-12T03:10:38.375Z,8.03
2018-04-12T03:12:34.838Z,8.11
2018-04-12T03:13:34.309Z,8.06
2018-04-12T03:15:30.295Z,7.95
2018-04-12T03:16:30.269Z,7.96
2018-04-12T03:18:27.697Z,8.07
2018-04-12T03:19:27.213Z,8.10
2018-04-12T03:21:23.160Z,7.98
2018-04-12T03:22:23.139Z,8.03
2018-04-12T03:24:21.106Z,8.10
2018-04-12T03:25:19.078Z,8.11
2018-04-12T03:27:15.012Z,8.21
2018-04-12T03:28:15.032Z,8.26
2018-04-12T03:30:11.973Z,8.26
2018-04-12T03:31:10.966Z,8.24
2018-04-12T03:33:06.924Z,8.21
2018-04-12T03:34:06.907Z,8.16
2018-04-12T03:36:02.839Z,8.19
2018-04-12T03:37:02.833Z,8.16
2018-04-12T03:38:58.720Z,8.13
2018-04-12T03:39:58.776Z,8.16
2018-04-12T03:41:54.662Z,8.19
2018-04-12T03:42:54.661Z,8.24
2018-04-12T03:44:50.615Z,8.22
2018-04-12T03:45:50.567Z,8.25
2018-04-12T03:47:46.493Z,8.29
2018-04-12T03:48:46.528Z,8.29
2018-04-12T03:50:42.462Z,8.21
2018-04-12T03:52:58.419Z,8.19
2018-04-12T03:53:58.384Z,8.21
2018-04-12T03:55:54.360Z,8.24
2018-04-12T03:56:54.842Z,8.16
2018-04-12T03:58:50.291Z,8.16
2018-04-12T03:59:50.789Z,8.24
2018-04-12T04:01:50.676Z,8.14
2018-04-12T04:02:48.148Z,8.11
2018-04-12T04:04:44.088Z,8.21
2018-04-12T04:05:44.624Z,8.17
2018-04-12T04:07:40.557Z,8.16
2018-04-12T04:09:56.485Z,8.16
2018-04-12T04:10:56.467Z,8.14
2018-04-12T04:12:51.907Z,8.19
2018-04-12T04:13:51.898Z,8.16
2018-04-12T04:15:47.820Z,8.19
2018-04-12T04:16:47.818Z,8.31
2018-04-12T04:18:46.770Z,8.32
2018-04-12T04:19:45.840Z,8.29
2018-04-12T04:21:42.797Z,8.26
2018-04-12T04:22:41.824Z,8.26
2018-04-12T04:24:38.752Z,8.25
2018-04-12T04:25:37.727Z,8.24
2018-04-12T04:27:36.193Z,8.32
2018-04-12T04:28:33.667Z,8.28
2018-04-12T04:30:29.599Z,8.28
2018-04-12T04:31:29.591Z,8.24
2018-04-12T04:33:26.057Z,8.29
2018-04-12T04:34:25.531Z,8.32
2018-04-12T04:36:23.456Z,8.32
2018-04-12T04:37:24.979Z,8.32
2018-04-12T04:39:20.413Z,8.40
2018-04-12T04:40:19.360Z,8.39
2018-04-12T04:42:15.311Z,8.40
2018-04-12T04:43:15.301Z,8.31
2018-04-12T04:45:11.750Z,8.43
2018-04-12T04:46:11.245Z,8.36
2018-04-12T04:48:07.709Z,8.34
2018-04-12T04:49:07.194Z,8.34
2018-04-12T04:51:03.119Z,8.34
2018-04-12T04:52:04.626Z,8.35
2018-04-12T04:53:59.560Z,8.39
2018-04-12T04:55:00.597Z,8.42
2018-04-12T04:56:55.510Z,8.42
2018-04-12T04:57:54.995Z,8.39
2018-04-12T04:59:51.460Z,8.44
2018-04-12T05:02:07.381Z,8.46
2018-04-12T05:03:06.872Z,8.47
2018-04-12T05:05:03.811Z,8.57
2018-04-12T05:06:04.289Z,8.62
2018-04-12T05:07:59.232Z,8.67
2018-04-12T05:08:58.722Z,8.61
2018-04-12T05:10:54.662Z,8.65
2018-04-12T05:11:54.660Z,8.68
2018-04-12T05:13:51.127Z,8.77
2018-04-12T05:14:50.602Z,8.92
2018-04-12T05:16:47.047Z,8.76
2018-04-12T05:17:46.524Z,8.85
2018-04-12T05:19:42.485Z,8.87
2018-04-12T05:20:42.459Z,8.98
2018-04-12T05:22:38.417Z,9.03
2018-04-12T05:23:38.420Z,8.98
2018-04-12T05:25:34.338Z,9.09
2018-04-12T05:26:34.337Z,9.11
2018-04-12T05:28:32.298Z,9.16
2018-04-12T05:29:32.295Z,9.16
2018-04-12T05:31:28.278Z,9.17
2018-04-12T05:32:28.223Z,9.23
2018-04-12T05:34:24.214Z,9.30
2018-04-12T05:35:24.151Z,9.35
2018-04-12T05:37:20.075Z,9.38
2018-04-12T05:38:20.084Z,9.48
2018-04-12T05:40:17.069Z,9.50
2018-04-12T05:41:16.557Z,9.59
2018-04-12T05:43:12.502Z,9.62
2018-04-12T05:44:12.005Z,9.64
2018-04-12T05:46:08.437Z,9.84
2018-04-12T05:47:07.907Z,9.82
2018-04-12T05:49:04.362Z,9.92
2018-04-12T05:50:03.796Z,10.05
2018-04-12T05:52:00.273Z,10.10
2018-04-12T05:53:01.253Z,10.07
2018-04-12T05:54:57.652Z,10.20
2018-04-12T05:55:58.170Z,10.18
2018-04-12T05:58:01.136Z,10.25
2018-04-12T05:59:02.100Z,10.26
2018-04-12T06:00:51.545Z,10.25
2018-04-12T06:01:53.065Z,10.32
2018-04-12T06:03:47.474Z,10.36
2018-04-12T06:04:49.019Z,10.42
2018-04-12T06:06:43.435Z,10.51
2018-04-12T06:07:43.401Z,10.55
2018-04-12T06:09:40.379Z,10.57
2018-04-12T06:10:39.383Z,10.59
2018-04-12T06:12:35.277Z,10.72
2018-04-12T06:13:35.805Z,10.80
2018-04-12T06:15:31.207Z,10.79
2018-04-12T06:16:31.193Z,10.80
2018-04-12T06:18:29.081Z,10.90
2018-04-12T06:19:27.155Z,10.95
2018-04-12T06:21:25.195Z,11.08
2018-04-12T06:22:25.590Z,11.16
2018-04-12T06:24:23.049Z,11.23
2018-04-12T06:25:23.525Z,11.21
2018-04-12T06:27:18.995Z,11.24
2018-04-12T06:28:19.028Z,11.27
2018-04-12T06:30:14.910Z,11.38
2018-04-12T06:31:15.427Z,11.38
2018-04-12T06:33:12.984Z,11.56
2018-04-12T06:34:13.801Z,11.60
2018-04-12T06:36:10.935Z,11.75
2018-04-12T06:37:08.924Z,11.84
2018-04-12T06:39:04.885Z,11.85
2018-04-12T06:40:04.823Z,11.82
2018-04-12T06:42:02.787Z,11.88
2018-04-12T06:43:00.766Z,12.00
2018-04-12T06:45:02.728Z,12.01
2018-04-12T06:46:01.259Z,12.03
2018-04-12T06:47:58.712Z,12.03
2018-04-12T06:48:57.686Z,12.10
2018-04-12T06:50:55.134Z,12.18
2018-04-12T06:53:10.103Z,12.18
2018-04-12T06:54:09.173Z,12.05
2018-04-12T06:56:05.062Z,12.11
2018-04-12T06:57:05.049Z,12.04
2018-04-12T06:59:02.512Z,12.03
2018-04-12T07:00:01.504Z,12.15
2018-04-12T07:01:58.949Z,12.03
2018-04-12T07:02:58.949Z,12.07
2018-04-12T07:04:57.895Z,12.13
2018-04-12T07:05:57.046Z,12.18
2018-04-12T07:07:53.970Z,12.19
2018-04-12T07:08:53.454Z,12.22
2018-04-12T07:10:50.899Z,12.18
2018-04-12T07:11:50.419Z,12.18
2018-04-12T07:13:46.849Z,12.22
2018-04-12T07:14:46.854Z,12.22
2018-04-12T07:16:41.844Z,12.25
2018-04-12T07:17:41.803Z,12.26
2018-04-12T07:19:37.764Z,12.29
2018-04-12T07:20:37.760Z,12.33
2018-04-12T07:22:34.698Z,12.29
2018-04-12T07:23:33.703Z,12.25
2018-04-12T07:25:29.650Z,12.22
2018-04-12T07:26:29.635Z,12.15
2018-04-12T07:28:27.614Z,12.23
2018-04-12T07:29:28.611Z,12.18
2018-04-12T07:31:23.705Z,12.19
2018-04-12T07:32:23.571Z,12.20
2018-04-12T07:34:25.026Z,12.20
2018-04-12T07:35:24.534Z,12.26
2018-04-12T07:37:24.505Z,12.34
2018-04-12T07:38:24.445Z,12.28
2018-04-12T07:40:23.431Z,12.45
2018-04-12T07:41:23.400Z,12.44
2018-04-12T07:43:23.013Z,12.56
2018-04-12T07:44:25.144Z,12.53
2018-04-12T07:46:24.001Z,12.71
2018-04-12T07:47:24.873Z,12.71
2018-04-12T07:49:19.338Z,12.62
2018-04-12T07:50:20.896Z,12.63
2018-04-12T07:52:19.901Z,12.71
2018-04-12T07:53:19.776Z,12.70
2018-04-12T07:55:20.786Z,12.62
2018-04-12T07:56:20.265Z,12.70
2018-04-12T07:58:20.699Z,12.73
2018-04-12T07:59:21.243Z,12.70
2018-04-12T08:01:23.654Z,12.78
2018-04-12T08:02:22.186Z,12.80
2018-04-12T08:04:22.548Z,12.80
2018-04-12T08:05:22.544Z,12.83
2018-04-12T08:07:23.097Z,12.86
2018-04-12T08:08:23.034Z,12.95
2018-04-12T08:10:23.965Z,13.09
2018-04-12T08:11:23.518Z,13.13
2018-04-12T08:13:21.893Z,13.25
2018-04-12T08:14:21.406Z,13.29
2018-04-12T08:16:18.898Z,13.47
2018-04-12T08:17:17.406Z,13.37
2018-04-12T08:19:16.358Z,13.72
2018-04-12T08:20:16.377Z,13.70
2018-04-12T08:22:19.926Z,13.81
2018-04-12T08:23:19.421Z,13.87
2018-04-12T08:25:15.346Z,13.97
2018-04-12T08:26:15.367Z,14.08
2018-04-12T08:28:13.328Z,14.06
2018-04-12T08:29:13.298Z,14.21
2018-04-12T08:31:09.750Z,14.21
2018-04-12T08:32:09.776Z,14.31
2018-04-12T08:34:08.724Z,14.12
2018-04-12T08:35:08.230Z,14.21
2018-04-12T08:37:05.785Z,14.33
2018-04-12T08:38:05.394Z,14.44
2018-04-12T08:40:03.315Z,14.44
2018-04-12T08:41:03.316Z,14.52
2018-04-12T08:42:59.811Z,14.69
2018-04-12T08:43:59.266Z,14.71
2018-04-12T08:45:55.273Z,14.75
2018-04-12T08:46:55.216Z,14.71
2018-04-12T08:48:55.169Z,14.82
2018-04-12T08:49:53.246Z,14.80
2018-04-12T08:51:51.209Z,14.82
2018-04-12T08:52:51.198Z,14.95
2018-04-12T08:54:50.157Z,14.97
2018-04-12T08:55:49.230Z,14.89
2018-04-12T08:57:49.640Z,14.95
2018-04-12T08:58:50.108Z,15.22
2018-04-12T09:00:47.546Z,15.16
2018-04-12T09:01:48.077Z,15.31
2018-04-12T09:03:45.510Z,15.62
2018-04-12T09:04:45.495Z,15.71
2018-04-12T09:06:44.950Z,15.95
2018-04-12T09:07:44.450Z,15.93
2018-04-12T09:09:42.942Z,15.91
2018-04-12T09:10:42.510Z,15.84
2018-04-12T09:12:41.083Z,15.56
2018-04-12T09:13:39.596Z,15.59
2018-04-12T09:15:38.630Z,15.56
2018-04-12T09:16:38.573Z,15.51
2018-04-12T09:18:35.608Z,15.44
2018-04-12T09:19:35.588Z,15.27
2018-04-12T09:21:33.568Z,15.30
2018-04-12T09:22:33.565Z,15.41
2018-04-12T09:24:31.546Z,15.30
2018-04-12T09:25:31.516Z,15.33
2018-04-12T09:27:29.501Z,15.34
2018-04-12T09:28:29.479Z,15.35
2018-04-12T09:30:27.436Z,15.41
2018-04-12T09:31:27.428Z,15.45
2018-04-12T09:33:25.361Z,15.35
2018-04-12T09:34:25.458Z,15.31
2018-04-12T09:36:24.326Z,15.49
2018-04-12T09:37:23.442Z,15.47
2018-04-12T09:39:21.490Z,15.58
2018-04-12T09:40:21.476Z,15.77
2018-04-12T09:42:17.430Z,15.98
2018-04-12T09:43:17.419Z,15.99
2018-04-12T09:45:13.896Z,16.32
2018-04-12T09:47:31.865Z,16.42
2018-04-12T09:48:31.365Z,16.40
2018-04-12T09:50:29.320Z,16.39
2018-04-12T09:51:29.307Z,16.47
2018-04-12T09:53:27.358Z,16.62
2018-04-12T09:54:27.381Z,16.52
2018-04-12T09:56:25.343Z,16.49
2018-04-12T09:57:25.326Z,16.59
2018-04-12T09:59:21.301Z,16.66
2018-04-12T10:00:22.789Z,16.73
2018-04-12T10:02:17.199Z,16.76
2018-04-12T10:03:17.207Z,16.92
2018-04-12T10:05:14.161Z,17.00
2018-04-12T10:06:13.173Z,17.05
2018-04-12T10:08:09.113Z,17.20
2018-04-12T10:09:09.129Z,17.28
2018-04-12T10:11:08.108Z,17.35
2018-04-12T10:12:07.205Z,17.46
2018-04-12T10:14:03.657Z,17.66
2018-04-12T10:15:03.160Z,17.68
2018-04-12T10:16:59.097Z,17.86
2018-04-12T10:17:59.643Z,17.92
2018-04-12T10:19:55.589Z,17.99
2018-04-12T10:20:55.058Z,18.16
2018-04-12T10:22:51.033Z,18.14
2018-04-12T10:23:51.006Z,18.11
2018-04-12T10:25:47.031Z,18.19
2018-04-12T10:26:46.973Z,18.34
2018-04-12T10:28:43.994Z,18.63
2018-04-12T10:29:44.428Z,18.75
2018-04-12T10:31:42.865Z,18.89
2018-04-12T10:32:41.870Z,19.09
2018-04-12T10:34:38.395Z,19.15
2018-04-12T10:35:37.825Z,19.15
2018-04-12T10:37:35.940Z,19.23
2018-04-12T10:38:35.926Z,19.24
2018-04-12T10:40:31.896Z,19.40
2018-04-12T10:41:31.913Z,19.19
2018-04-12T10:43:29.849Z,19.27
2018-04-12T10:44:29.874Z,19.20
2018-04-12T10:46:26.842Z,19.15
2018-04-12T10:47:25.829Z,19.30
2018-04-12T10:49:23.758Z,19.32
2018-04-12T10:50:23.756Z,19.15
2018-04-12T10:52:21.725Z,19.12
2018-04-12T10:53:21.714Z,19.12
2018-04-12T10:55:20.201Z,19.15
2018-04-12T10:56:20.291Z,19.16
2018-04-12T10:58:20.118Z,19.12
2018-04-12T10:59:20.662Z,18.93
2018-04-12T11:01:19.102Z,18.99
2018-04-12T11:02:19.103Z,18.97
2018-04-12T11:04:14.091Z,19.10
2018-04-12T11:05:14.589Z,19.12
2018-04-12T11:07:12.539Z,19.13
2018-04-12T11:08:12.135Z,19.17
2018-04-12T11:10:09.090Z,18.82
2018-04-12T11:11:08.130Z,18.79
2018-04-12T11:13:05.080Z,18.81
2018-04-12T11:14:04.084Z,18.86
2018-04-12T11:16:00.534Z,18.86
2018-04-12T11:17:00.057Z,19.00
2018-04-12T11:18:56.488Z,18.96
2018-04-12T11:19:55.979Z,19.05
2018-04-12T11:21:52.421Z,19.20
2018-04-12T11:22:52.417Z,19.24
2018-04-12T11:24:49.943Z,19.38
2018-04-12T11:25:49.867Z,19.40
2018-04-12T11:27:45.808Z,19.55
2018-04-12T11:28:46.828Z,19.56
2018-04-12T11:30:41.828Z,19.56
2018-04-12T11:31:41.783Z,19.49
2018-04-12T11:33:39.241Z,19.67
2018-04-12T11:34:37.764Z,19.68
2018-04-12T11:36:33.714Z,19.71
2018-04-12T11:37:33.723Z,19.67
2018-04-12T11:39:32.686Z,19.50
2018-04-12T11:40:31.782Z,19.55
2018-04-12T11:42:29.231Z,19.56
2018-04-12T11:43:29.207Z,19.65
2018-04-12T11:45:24.695Z,19.53
2018-04-12T11:46:26.168Z,19.47
2018-04-12T11:48:20.657Z,19.75
2018-04-12T11:49:20.657Z,19.75
2018-04-12T11:51:18.095Z,19.83
2018-04-12T11:52:16.604Z,19.87
2018-04-12T11:54:23.547Z,19.95
2018-04-12T11:56:26.060Z,20.10
2018-04-12T11:57:26.540Z,20.20
2018-04-12T11:59:21.996Z,20.34
2018-04-12T12:00:21.949Z,20.35
2018-04-12T12:02:19.419Z,20.53
2018-04-12T12:03:17.895Z,20.56
2018-04-12T12:05:13.853Z,20.63
2018-04-12T12:06:14.357Z,20.61
2018-04-12T12:08:09.841Z,20.56
2018-04-12T12:09:09.817Z,20.49
2018-04-12T12:11:05.276Z,20.42
2018-04-12T12:12:04.800Z,20.42
2018-04-12T12:14:00.268Z,20.34
2018-04-12T12:15:00.228Z,20.35
2018-04-12T12:16:57.193Z,20.08
2018-04-12T12:17:56.698Z,19.98
2018-04-12T12:19:52.143Z,19.93
2018-04-12T12:20:52.151Z,19.97
2018-04-12T12:22:46.547Z,19.95
2018-04-12T12:23:46.173Z,20.01
2018-04-12T12:25:41.589Z,20.04
2018-04-12T12:26:41.566Z,19.97
2018-04-12T12:28:38.531Z,19.98
2018-04-12T12:29:37.493Z,19.97
2018-04-12T12:31:33.471Z,19.90
2018-04-12T12:32:33.430Z,19.95
2018-04-12T12:34:27.919Z,20.08
2018-04-12T12:35:27.926Z,20.02
2018-04-12T12:37:25.413Z,20.02
2018-04-12T12:38:23.874Z,20.00
2018-04-12T12:40:20.334Z,19.97
2018-04-12T12:41:20.826Z,20.12
2018-04-12T12:43:16.312Z,20.16
2018-04-12T12:44:15.826Z,20.10
2018-04-12T12:46:11.800Z,20.30
2018-04-12T12:47:13.282Z,20.37
2018-04-12T12:49:08.247Z,20.12
2018-04-12T12:50:07.704Z,20.15
2018-04-12T12:52:03.684Z,20.34
2018-04-12T12:53:04.189Z,20.38
2018-04-12T12:54:59.620Z,20.57
2018-04-12T12:55:59.659Z,20.64
2018-04-12T12:57:56.102Z,20.74
2018-04-12T12:58:55.572Z,20.79
2018-04-12T13:00:51.530Z,20.88
2018-04-12T13:01:51.531Z,20.93
2018-04-12T13:03:48.999Z,20.79
2018-04-12T13:04:48.988Z,20.79
2018-04-12T13:06:41.951Z,20.71
2018-04-12T13:07:41.955Z,20.58
2018-04-12T13:09:37.910Z,20.58
2018-04-12T13:10:36.397Z,20.61
2018-04-12T13:12:33.383Z,20.67
2018-04-12T13:13:32.379Z,20.67
2018-04-12T13:15:27.338Z,20.67
2018-04-12T13:16:26.824Z,20.68
2018-04-12T13:18:22.821Z,20.71
2018-04-12T13:19:23.801Z,20.75
2018-04-12T13:21:18.269Z,20.83
2018-04-12T13:22:17.285Z,20.86
2018-04-12T13:24:11.266Z,20.98
2018-04-12T13:25:10.744Z,21.08
2018-04-12T13:27:06.717Z,20.98
2018-04-12T13:28:06.742Z,20.98
2018-04-12T13:30:01.200Z,21.23
2018-04-12T13:31:01.239Z,21.13
2018-04-12T13:32:55.704Z,21.19
2018-04-12T13:33:56.611Z,21.25
2018-04-12T13:35:52.671Z,21.31
2018-04-12T13:36:52.159Z,21.30
2018-04-12T13:38:46.621Z,21.40
2018-04-12T13:39:46.089Z,21.45
2018-04-12T13:41:42.038Z,21.64
2018-04-12T13:42:42.034Z,21.58
2018-04-12T13:44:39.926Z,21.53
2018-04-12T13:45:37.991Z,21.55
2018-04-12T13:47:33.976Z,21.53
2018-04-12T13:48:33.941Z,21.61
2018-04-12T13:50:29.903Z,21.80
2018-04-12T13:51:29.910Z,21.90
2018-04-12T13:53:25.396Z,21.73
2018-04-12T13:54:24.897Z,21.83
2018-04-12T13:56:18.837Z,21.82
2018-04-12T13:57:18.855Z,21.92
2018-04-12T13:59:17.307Z,21.94
2018-04-12T14:00:16.773Z,21.96
2018-04-12T14:02:14.740Z,22.04
2018-04-12T14:03:12.758Z,22.05
2018-04-12T14:05:08.693Z,22.12
2018-04-12T14:06:08.709Z,22.12
2018-04-12T14:08:03.166Z,22.23
2018-04-12T14:09:03.182Z,22.44
2018-04-12T14:10:58.138Z,22.60
2018-04-12T14:11:58.161Z,22.61
2018-04-12T14:13:51.097Z,22.94
2018-04-12T14:14:51.079Z,23.00
2018-04-12T14:16:47.031Z,23.07
2018-04-12T14:17:48.059Z,23.21
2018-04-12T14:19:40.558Z,23.32
2018-04-12T14:20:40.517Z,23.40
2018-04-12T14:22:37.487Z,23.22
2018-04-12T14:23:36.512Z,23.14
2018-04-12T14:25:32.977Z,23.18
2018-04-12T14:26:32.457Z,23.26
2018-04-12T14:28:28.481Z,23.22
2018-04-12T14:29:28.446Z,23.37
2018-04-12T14:31:23.422Z,23.10
2018-04-12T14:32:22.924Z,23.10
2018-04-12T14:34:18.907Z,23.21
2018-04-12T14:35:18.890Z,23.21
2018-04-12T14:37:14.871Z,23.24
2018-04-12T14:38:14.850Z,23.22
2018-04-12T14:40:09.329Z,23.35
2018-04-12T14:41:09.316Z,23.53
2018-04-12T14:43:05.295Z,23.48
2018-04-12T14:44:05.789Z,23.41
2018-04-12T14:46:00.303Z,23.25
2018-04-12T14:46:59.778Z,23.21
2018-04-12T14:48:55.761Z,23.15
2018-04-12T14:49:56.230Z,23.09
2018-04-12T14:51:49.185Z,23.12
2018-04-12T14:52:50.164Z,23.04
2018-04-12T14:54:46.643Z,23.07
2018-04-12T14:55:45.133Z,23.15
2018-04-12T14:57:43.173Z,23.06
2018-04-12T14:58:44.094Z,23.09
2018-04-12T15:00:39.575Z,22.97
2018-04-12T15:01:39.076Z,22.84
2018-04-12T15:03:35.052Z,22.76
2018-04-12T15:04:35.534Z,22.82
2018-04-12T15:06:32.028Z,22.75
2018-04-12T15:07:30.986Z,22.64
2018-04-12T15:09:28.464Z,22.60
2018-04-12T15:10:27.451Z,22.67
2018-04-12T15:12:23.413Z,22.60
2018-04-12T15:13:22.905Z,22.54
2018-04-12T15:15:19.854Z,22.49
2018-04-12T15:16:19.857Z,22.45
2018-04-12T15:18:15.819Z,22.54
2018-04-12T15:19:15.836Z,22.57
2018-04-12T15:21:12.301Z,22.55
2018-04-12T15:22:11.293Z,22.55
2018-04-12T15:24:06.251Z,22.69
2018-04-12T15:25:05.751Z,22.54
2018-04-12T15:27:01.793Z,22.61
2018-04-12T15:28:02.219Z,22.69
2018-04-12T15:29:55.664Z,22.63
2018-04-12T15:30:55.673Z,22.69
2018-04-12T15:32:54.069Z,22.57
2018-04-12T15:33:51.649Z,22.54
2018-04-12T15:35:46.643Z,22.57
2018-04-12T15:36:46.109Z,22.55
2018-04-12T15:38:40.541Z,22.61
2018-04-12T15:39:40.551Z,22.64
2018-04-12T15:41:36.506Z,22.52
2018-04-12T15:42:37.002Z,22.55
2018-04-12T15:44:29.954Z,22.59
2018-04-12T15:45:29.963Z,22.52
2018-04-12T15:47:25.933Z,22.64
2018-04-12T15:48:25.938Z,22.61
2018-04-12T15:50:21.891Z,22.69
2018-04-12T15:51:21.896Z,22.75
2018-04-12T15:53:17.879Z,22.85
2018-04-12T15:54:17.860Z,22.85
2018-04-12T15:56:13.844Z,22.97
2018-04-12T15:57:13.811Z,22.92
2018-04-12T15:59:09.775Z,22.82
2018-04-12T16:00:09.747Z,22.86
2018-04-12T16:02:04.709Z,22.81
2018-04-12T16:03:04.210Z,22.75
2018-04-12T16:05:00.161Z,22.70
2018-04-12T16:06:01.110Z,22.76
2018-04-12T16:07:57.131Z,22.60
2018-04-12T16:08:56.135Z,22.67
2018-04-12T16:10:50.578Z,22.64
2018-04-12T16:11:51.094Z,22.70
2018-04-12T16:13:46.575Z,22.63
2018-04-12T16:14:47.052Z,22.55
2018-04-12T16:16:42.520Z,22.61
2018-04-12T16:17:42.051Z,22.67
2018-04-12T16:19:35.555Z,22.75
2018-04-12T16:20:36.531Z,22.79
2018-04-12T16:22:31.473Z,22.64
2018-04-12T16:23:31.513Z,22.69
2018-04-12T16:25:25.960Z,22.67
2018-04-12T16:26:24.958Z,22.69
2018-04-12T16:28:21.851Z,22.60
2018-04-12T16:29:20.929Z,22.63
2018-04-12T16:31:16.920Z,22.63
2018-04-12T16:32:16.910Z,22.61
2018-04-12T16:34:12.385Z,22.69
2018-04-12T16:35:11.398Z,22.52
2018-04-12T16:37:07.385Z,22.31
2018-04-12T16:38:07.359Z,22.29
2018-04-12T16:40:03.340Z,22.16
2018-04-12T16:41:03.325Z,22.14
2018-04-12T16:42:59.272Z,22.04
2018-04-12T16:43:59.280Z,21.93
2018-04-12T16:45:55.767Z,21.93
2018-04-12T16:46:55.281Z,21.85
2018-04-12T16:48:49.231Z,21.80
2018-04-12T16:49:48.693Z,21.70
2018-04-12T16:51:44.675Z,21.68
2018-04-12T16:52:44.646Z,21.68
2018-04-12T16:54:39.133Z,21.66
2018-04-12T16:55:39.165Z,21.64
2018-04-12T16:57:35.107Z,21.49
2018-04-12T16:58:36.090Z,21.45
2018-04-12T17:00:30.559Z,21.40
2018-04-12T17:01:29.549Z,21.34
2018-04-12T17:03:25.520Z,21.34
2018-04-12T17:04:25.525Z,21.31
2018-04-12T17:06:21.485Z,21.22
2018-04-12T17:07:21.491Z,21.22
2018-04-12T17:09:18.458Z,21.13
2018-04-12T17:10:17.441Z,21.08
2018-04-12T17:12:10.961Z,20.98
2018-04-12T17:13:10.874Z,20.97
2018-04-12T17:15:05.331Z,20.71
2018-04-12T17:16:05.342Z,20.60
2018-04-12T17:18:02.324Z,20.42
2018-04-12T17:19:01.318Z,20.25
2018-04-12T17:20:55.803Z,20.20
2018-04-12T17:21:56.764Z,20.08
2018-04-12T17:23:52.730Z,19.95
2018-04-12T17:24:51.727Z,19.92
2018-04-12T17:26:47.178Z,19.87
2018-04-12T17:27:47.178Z,19.86
2018-04-12T17:29:41.692Z,19.78
2018-04-12T17:30:40.666Z,19.72
2018-04-12T17:32:38.624Z,19.65
2018-04-12T17:33:38.653Z,19.65
2018-04-12T17:35:34.575Z,19.71
2018-04-12T17:36:34.574Z,19.64
2018-04-12T17:38:29.071Z,19.78
2018-04-12T17:39:30.047Z,19.67
2018-04-12T17:41:24.516Z,19.70
2018-04-12T17:42:24.516Z,19.70
2018-04-12T17:44:19.549Z,19.72
2018-04-12T17:45:19.509Z,19.60
2018-04-12T17:47:15.491Z,19.75
2018-04-12T17:48:15.470Z,19.71
2018-04-12T17:50:12.422Z,19.47
2018-04-12T17:51:11.414Z,19.46
2018-04-12T17:53:07.369Z,19.20
2018-04-12T17:54:07.361Z,19.15
2018-04-12T17:56:04.252Z,19.02
2018-04-12T17:57:04.853Z,18.90
2018-04-12T17:58:59.307Z,18.74
2018-04-12T17:59:59.253Z,18.57
2018-04-12T18:01:54.257Z,18.59
2018-04-12T18:02:53.715Z,18.51
2018-04-12T18:04:50.210Z,18.41
2018-04-12T18:05:49.678Z,18.29
2018-04-12T18:07:44.143Z,18.13
2018-04-12T18:08:44.652Z,18.02
2018-04-12T18:10:38.603Z,17.92
2018-04-12T18:11:38.597Z,17.95
2018-04-12T18:13:34.033Z,17.84
2018-04-12T18:14:33.527Z,17.83
2018-04-12T18:16:28.989Z,17.80
2018-04-12T18:17:29.001Z,17.79
2018-04-12T18:19:24.925Z,17.86
2018-04-12T18:20:24.942Z,17.92
2018-04-12T18:22:21.403Z,17.95
2018-04-12T18:23:20.883Z,17.99
2018-04-12T18:25:18.345Z,18.06
2018-04-12T18:26:16.869Z,17.99
2018-04-12T18:28:11.306Z,18.16
2018-04-12T18:29:10.286Z,18.11
2018-04-12T18:31:09.747Z,18.14
2018-04-12T18:32:08.366Z,18.11
2018-04-12T18:34:04.832Z,18.13
2018-04-12T18:35:04.834Z,18.13
2018-04-12T18:37:06.232Z,18.14
2018-04-12T18:39:58.200Z,18.14
2018-04-12T18:42:52.761Z,18.16
2018-04-12T18:43:53.160Z,18.20
2018-04-12T18:45:50.625Z,18.01
2018-04-12T18:46:49.142Z,18.06
2018-04-12T18:48:45.083Z,17.99
2018-04-12T18:49:45.106Z,17.92
2018-04-12T18:51:45.508Z,18.02
2018-04-12T18:52:41.041Z,17.98
2018-04-12T18:54:37.966Z,17.83
2018-04-12T18:55:37.474Z,17.87
2018-04-12T18:57:33.432Z,17.73
2018-04-12T18:58:33.439Z,17.77
2018-04-12T19:00:29.379Z,17.71
2018-04-12T19:01:28.881Z,17.66
2018-04-12T19:03:27.319Z,17.55
2018-04-12T19:06:21.827Z,17.49
2018-04-12T19:07:21.295Z,17.55
2018-04-12T19:09:16.751Z,17.47
2018-04-12T19:10:17.237Z,17.39
2018-04-12T19:12:13.150Z,17.42
2018-04-12T19:13:11.164Z,17.39
2018-04-12T19:15:06.127Z,17.39
2018-04-12T19:16:06.126Z,17.30